AirNav   Everest Fuels
 
 1257 users online  

2FL4 Brady Heliport
Juno Beach, Florida, USA

GOING TO JUNO BEACH?


FAA INFORMATION EFFECTIVE 05 DECEMBER 2019

Location

FAA Identifier: 2FL4
Lat/Long: 26-51-21.0000N 080-04-29.0000W
26-51.350000N 080-04.483333W
26.8558333,-80.0747222
(estimated)
Elevation: 4 ft. / 1 m (estimated)
Variation: 05W (1995)
From city: 3 miles SW of JUNO BEACH, FL
Time zone: UTC -5 (UTC -4 during Daylight Saving Time)
Zip code: 33410

Heliport Operations

Heliport use: Private use. Permission required prior to landing
Activation date: 02/1999
Control tower: no
ARTCC: MIAMI CENTER
FSS: MIAMI FLIGHT SERVICE STATION
Attendance: CONTINUOUS
Segmented circle: no

Heliport Communications

WX AWOS-3 at F45 (8 nm W): 119.975 (561-630-6932)
WX ASOS at PBI (10 nm S): 123.75 (561-683-2548)
WX AWOS-3PT at LNA (16 nm S): 119.925 (561-964-0308)

Nearby radio navigation aids

VOR radial/distance  VOR name  Freq  Var
PBIr006/10.6PALM BEACH VORTAC115.7003W
PHKr082/33.3PAHOKEE VOR/DME115.4000E

 
NDB name  Hdg/Dist  Freq  Var  ID
UNITED108/14.340505WUTX ..- - -..-

Heliport Services

Runway Information

Helipad H1

Dimensions: 20 x 20 ft. / 6 x 6 m
Surface: turf
Traffic pattern: leftleft

Heliport Ownership and Management from official FAA records

Ownership: Privately-owned
Owner: DAVID BRADY
2106 PLEASANT DRIVE
NORTH PALM BEACH, FL 33408
Phone 561-622-5641
Manager: DAVID BRADY
2106 PLEASANT DRIVE
NORTH PALM BEACH, FL 33408
Phone 561-622-5641

Additional Remarks

20 FT TREE 150 FT EAST OF HELIPAD.
FOR CD CTC PALM BEACH APCH AT 561-275-1430

Instrument Procedures

There are no published instrument procedures at 2FL4.

Some nearby airports with instrument procedures:

F45 - North Palm Beach County General Aviation Airport (8 nm W)
KPBI - Palm Beach International Airport (10 nm S)
06FA - William P Gwinn Airport (14 nm W)
KLNA - Palm Beach County Park Airport (16 nm S)
KSUA - Witham Field Airport (21 nm N)
 
Loc | Ops | Rwys | IFR | FBO | Links
Com | Nav | Svcs | Stats | Notes

Reliance Aviation
AirBoss

 
Area around 2FL4 (Brady Heliport)
 
Road maps at: MapQuest Bing Google
 
Aerial photo
No photo
 
Sectional chart

 
Airport distance calculator
Flying to Brady Heliport? Find the distance to fly.

From to 2FL4

Sunrise and sunset
Times for 13-Dec-2019
 Local
(UTC-5)
 Zulu
(UTC)
Morning civil twilight06:3611:36
Sunrise07:0112:01
Sunset17:2822:28
Evening civil twilight17:5322:53

Current date and time
Zulu (UTC)  13-Dec-2019 14:38:44
Local (UTC-5)  13-Dec-2019 09:38:44
 
METAR
KF45 
8nm W 
131410Z AUTO 12007KT 10SM FEW019 24/23 A3002 RMK AO2 TSNO
KPBI 
10nm S 
131353Z 11011KT 10SM SCT018 SCT027 BKN110 BKN240 26/22 A3000 RMK AO2 SLP157 T02560217
KLNA 
16nm S 
131415Z AUTO 12011KT 10SM SCT022 SCT027 26/22 A3001 RMK AO2 T02570222 PNO
TAF
KPBI 
10nm S 
131139Z 1312/1412 09010KT P6SM VCSH FEW015 SCT025 BKN035 FM131500 14009KT P6SM VCSH SCT025 BKN040 FM131800 19012KT P6SM VCTS SCT025CB SCT060 FM140000 20007KT P6SM SCT020 BKN250
NOTAMs
Click for the latest NOTAMs
NOTAMs are issued by the DoD/FAA and will open in a separate window not controlled by AirNav.

 

 
 

Would you like to see your business listed on this page?

 If your business provides an interesting product or service to pilots, flight crews, aircraft, or users of the Brady Heliport, you should consider listing it here.  To start the listing process, click on the button below
 
Add a business
 

Other Pages about Brady Heliport

Update a link
 
Copyright © AirNav, LLC. All rights reserved. Privacy Policy  Contact